createdAt,value
2022-09-17T00:00:11.365Z,22.27
2022-09-17T00:02:46.196Z,21.08
2022-09-17T00:05:35.411Z,22.60
2022-09-17T00:08:08.454Z,19.73
2022-09-17T00:10:55.426Z,20.95
2022-09-17T00:13:29.462Z,20.83
2022-09-17T00:16:19.467Z,20.42
2022-09-17T00:18:52.505Z,20.15
2022-09-17T00:21:39.370Z,20.02
2022-09-17T00:24:20.379Z,20.40
2022-09-17T00:27:14.404Z,19.40
2022-09-17T00:30:08.371Z,21.45
2022-09-17T00:33:04.371Z,22.20
2022-09-17T00:35:58.390Z,23.13
2022-09-17T00:38:52.383Z,20.38
2022-09-17T00:41:48.390Z,20.33
2022-09-17T00:45:05.440Z,19.75
2022-09-17T00:48:04.377Z,19.35
2022-09-17T00:50:51.420Z,20.80
2022-09-17T00:53:35.421Z,21.27
2022-09-17T00:56:42.398Z,20.10
2022-09-17T00:59:30.377Z,19.63
2022-09-17T01:02:03.527Z,20.10
2022-09-17T01:04:50.406Z,20.83
2022-09-17T01:07:35.429Z,21.48
2022-09-17T01:10:49.428Z,19.33
2022-09-17T01:14:25.419Z,20.50
2022-09-17T01:16:58.694Z,20.50
2022-09-17T01:20:04.404Z,19.98
2022-09-17T01:22:59.510Z,21.27
2022-09-17T01:26:14.392Z,21.05
2022-09-17T01:29:23.411Z,19.67
2022-09-17T01:32:22.398Z,19.95
2022-09-17T01:35:34.414Z,20.70
2022-09-17T01:38:50.395Z,19.25
2022-09-17T01:41:37.605Z,20.17
2022-09-17T01:44:52.397Z,21.58
2022-09-17T01:47:40.417Z,21.58
2022-09-17T01:50:59.420Z,20.27
2022-09-17T01:54:09.415Z,19.65
2022-09-17T01:57:15.414Z,21.08
2022-09-17T02:00:21.379Z,19.73
2022-09-17T02:03:25.415Z,20.30
2022-09-17T02:06:09.546Z,19.60
2022-09-17T02:09:03.427Z,18.33
2022-09-17T02:11:39.506Z,20.00
2022-09-17T02:14:31.439Z,20.85
2022-09-17T02:17:20.436Z,20.20
2022-09-17T02:20:14.443Z,19.25
2022-09-17T02:23:09.429Z,20.77
2022-09-17T02:25:50.562Z,21.25
2022-09-17T02:28:48.443Z,18.98
2022-09-17T02:31:21.641Z,19.30
2022-09-17T02:34:12.442Z,19.35
2022-09-17T02:36:45.530Z,20.23
2022-09-17T02:39:33.441Z,22.38
2022-09-17T02:42:35.450Z,21.33
2022-09-17T02:45:46.457Z,20.80
2022-09-17T02:48:54.444Z,18.90
2022-09-17T02:51:56.535Z,21.63
2022-09-17T02:54:49.408Z,19.55
2022-09-17T02:57:33.553Z,18.65
2022-09-17T03:00:24.465Z,21.02
2022-09-17T03:03:12.470Z,20.65
2022-09-17T03:06:07.461Z,21.33
2022-09-17T03:08:54.466Z,19.40
2022-09-17T03:11:36.616Z,20.10
2022-09-17T03:14:23.456Z,20.77
2022-09-17T03:16:56.547Z,20.52
2022-09-17T03:19:43.460Z,20.60
2022-09-17T03:22:16.533Z,19.88
2022-09-17T03:25:03.454Z,20.65
2022-09-17T03:27:43.462Z,21.10
2022-09-17T03:30:37.454Z,20.02
2022-09-17T03:33:24.502Z,20.00
2022-09-17T03:36:04.465Z,21.85
2022-09-17T03:39:00.800Z,20.50
2022-09-17T03:41:56.522Z,21.50
2022-09-17T03:44:52.538Z,20.02
2022-09-17T03:47:39.456Z,19.35
2022-09-17T03:50:20.510Z,20.65
2022-09-17T03:53:07.470Z,19.92
2022-09-17T03:55:40.566Z,18.83
2022-09-17T03:58:27.468Z,19.80
2022-09-17T04:01:00.586Z,18.77
2022-09-17T04:03:47.490Z,18.98
2022-09-17T04:06:27.479Z,19.42
2022-09-17T04:09:15.462Z,19.27
2022-09-17T04:11:48.596Z,18.20
2022-09-17T04:14:35.463Z,17.98
2022-09-17T04:17:15.488Z,18.67
2022-09-17T04:20:02.509Z,19.73
2022-09-17T04:22:44.801Z,17.13
2022-09-17T04:25:38.513Z,17.00
2022-09-17T04:28:34.780Z,17.67
2022-09-17T04:31:29.519Z,17.20
2022-09-17T04:34:16.508Z,16.15
2022-09-17T04:36:56.521Z,16.52
2022-09-17T04:39:44.508Z,18.58
2022-09-17T04:42:24.514Z,18.23
2022-09-17T04:45:11.525Z,17.23
2022-09-17T04:47:54.525Z,19.08
2022-09-17T04:50:41.512Z,17.05
2022-09-17T04:53:21.507Z,16.17
2022-09-17T04:56:15.515Z,16.60
2022-09-17T04:59:02.518Z,16.58
2022-09-17T05:01:42.559Z,15.85
2022-09-17T05:04:29.517Z,15.55
2022-09-17T05:07:02.901Z,16.80
2022-09-17T05:09:49.514Z,14.65
2022-09-17T05:12:22.592Z,16.15
2022-09-17T05:15:10.507Z,16.98
2022-09-17T05:17:43.605Z,17.48
2022-09-17T05:20:30.521Z,15.57
2022-09-17T05:23:03.610Z,18.38
2022-09-17T05:25:50.505Z,17.95
2022-09-17T05:28:23.613Z,18.85
2022-09-17T05:31:17.595Z,21.58
2022-09-17T05:34:12.532Z,19.33
2022-09-17T05:36:59.519Z,22.55
2022-09-17T05:39:33.105Z,19.10
2022-09-17T05:42:19.519Z,21.45
2022-09-17T05:44:52.639Z,21.35
2022-09-17T05:47:39.540Z,21.33
2022-09-17T05:50:12.787Z,22.13
2022-09-17T05:53:00.581Z,21.98
2022-09-17T05:55:33.673Z,20.35
2022-09-17T05:58:21.521Z,22.08
2022-09-17T06:01:01.553Z,21.60
2022-09-17T06:03:34.622Z,21.92
2022-09-17T06:06:21.516Z,21.90
2022-09-17T06:08:54.634Z,21.60
2022-09-17T06:11:42.528Z,22.08
2022-09-17T06:14:16.350Z,20.25
2022-09-17T06:17:02.545Z,20.17
2022-09-17T06:19:35.623Z,18.73
2022-09-17T06:22:25.527Z,19.02
2022-09-17T06:25:07.541Z,20.23
2022-09-17T06:27:54.543Z,18.52
2022-09-17T06:30:34.551Z,19.15
2022-09-17T06:33:21.567Z,17.35
2022-09-17T06:35:54.669Z,18.77
2022-09-17T06:38:42.577Z,17.95
2022-09-17T06:41:23.573Z,19.40
2022-09-17T06:44:11.545Z,19.48
2022-09-17T06:46:51.589Z,19.27
2022-09-17T06:49:45.535Z,18.80
2022-09-17T06:52:32.560Z,16.67
2022-09-17T06:55:05.650Z,18.17
2022-09-17T06:57:52.558Z,20.23
2022-09-17T07:00:25.898Z,18.60
2022-09-17T07:03:12.574Z,18.05
2022-09-17T07:05:45.973Z,18.73
2022-09-17T07:08:32.561Z,21.65
2022-09-17T07:11:05.661Z,20.30
2022-09-17T07:13:52.575Z,19.50
2022-09-17T07:16:26.802Z,19.35
2022-09-17T07:19:14.906Z,18.33
2022-09-17T07:21:48.782Z,20.65
2022-09-17T07:24:35.563Z,18.10
2022-09-17T07:27:08.660Z,19.70
2022-09-17T07:30:02.561Z,18.40
2022-09-17T07:32:49.579Z,17.73
2022-09-17T07:35:29.573Z,17.35
2022-09-17T07:38:23.592Z,16.63
2022-09-17T07:41:24.581Z,17.63
2022-09-17T07:44:13.567Z,17.98
2022-09-17T07:46:53.635Z,17.55
2022-09-17T07:49:47.570Z,20.08
2022-09-17T07:52:41.600Z,21.08
2022-09-17T07:55:30.581Z,17.98
2022-09-17T07:58:03.715Z,19.80
2022-09-17T08:00:50.591Z,19.85
2022-09-17T08:03:23.666Z,19.48
2022-09-17T08:06:21.592Z,17.23
2022-09-17T08:09:01.572Z,19.77
2022-09-17T08:11:56.655Z,20.90
2022-09-17T08:14:50.598Z,18.17
2022-09-17T08:17:44.598Z,17.55
2022-09-17T08:20:32.584Z,20.40
2022-09-17T08:23:06.722Z,19.58
2022-09-17T08:26:05.615Z,19.02
2022-09-17T08:28:45.603Z,14.68
2022-09-17T08:31:40.740Z,17.02
2022-09-17T08:34:27.601Z,17.58
2022-09-17T08:37:00.772Z,18.35
2022-09-17T08:39:47.618Z,16.55
2022-09-17T08:42:55.592Z,17.15
2022-09-17T08:45:42.613Z,14.88
2022-09-17T08:48:20.736Z,14.20
2022-09-17T08:51:17.611Z,16.00
2022-09-17T08:54:15.605Z,15.82
2022-09-17T08:57:43.631Z,15.85
2022-09-17T09:00:31.604Z,15.50
2022-09-17T09:03:43.616Z,15.38
2022-09-17T09:06:43.618Z,15.30
2022-09-17T09:09:41.662Z,16.67
2022-09-17T09:12:40.672Z,15.85
2022-09-17T09:15:53.652Z,16.25
2022-09-17T09:18:32.730Z,16.02
2022-09-17T09:21:37.608Z,15.20
2022-09-17T09:24:25.255Z,16.40
2022-09-17T09:27:46.637Z,15.73
2022-09-17T09:30:24.957Z,17.33
2022-09-17T09:33:40.892Z,16.65
2022-09-17T09:36:22.167Z,17.17
2022-09-17T09:39:14.643Z,14.35
2022-09-17T09:42:16.642Z,15.13
2022-09-17T09:45:35.644Z,16.52
2022-09-17T09:48:47.655Z,14.98
2022-09-17T09:52:08.656Z,15.48
2022-09-17T09:55:08.742Z,16.45
2022-09-17T09:58:02.642Z,15.40
2022-09-17T10:00:44.643Z,14.90
2022-09-17T10:03:39.672Z,15.63
2022-09-17T10:06:15.766Z,15.00
2022-09-17T10:09:02.656Z,15.63
2022-09-17T10:11:39.549Z,16.10
2022-09-17T10:14:34.663Z,16.33
2022-09-17T10:17:36.660Z,16.13
2022-09-17T10:20:31.646Z,17.08
2022-09-17T10:23:18.663Z,15.88
2022-09-17T10:25:54.040Z,16.23
2022-09-17T10:28:57.733Z,17.30
2022-09-17T10:31:37.707Z,17.23
2022-09-17T10:34:39.677Z,15.50
2022-09-17T10:37:41.661Z,18.15
2022-09-17T10:40:27.440Z,17.23
2022-09-17T10:43:34.681Z,16.85
2022-09-17T10:46:15.710Z,17.05
2022-09-17T10:49:30.693Z,17.13
2022-09-17T10:52:23.675Z,16.65
2022-09-17T10:55:19.697Z,18.75
2022-09-17T10:58:21.671Z,15.88
2022-09-17T11:01:40.786Z,17.38
2022-09-17T11:04:41.685Z,16.98
2022-09-17T11:07:46.697Z,16.08
2022-09-17T11:10:50.694Z,16.00
2022-09-17T11:14:08.709Z,15.85
2022-09-17T11:16:58.683Z,15.48
2022-09-17T11:20:28.702Z,14.77
2022-09-17T11:23:40.696Z,15.40
2022-09-17T11:26:40.732Z,14.40
2022-09-17T11:30:11.694Z,15.88
2022-09-17T11:33:21.720Z,16.73
2022-09-17T11:36:30.679Z,15.60
2022-09-17T11:39:30.727Z,15.35
2022-09-17T11:42:31.704Z,16.55
2022-09-17T11:45:32.675Z,13.98
2022-09-17T11:48:18.703Z,14.82
2022-09-17T11:51:14.688Z,16.55
2022-09-17T11:53:53.796Z,15.52
2022-09-17T11:56:47.709Z,15.10
2022-09-17T11:59:47.066Z,17.17
2022-09-17T12:02:56.880Z,15.77
2022-09-17T12:05:32.824Z,17.30
2022-09-17T12:09:01.724Z,17.70
2022-09-17T12:11:53.720Z,16.52
2022-09-17T12:14:51.733Z,17.48
2022-09-17T12:17:36.803Z,17.00
2022-09-17T12:20:45.712Z,16.35
2022-09-17T12:23:24.815Z,16.42
2022-09-17T12:26:40.720Z,16.27
2022-09-17T12:29:48.722Z,16.42
2022-09-17T12:33:00.734Z,15.13
2022-09-17T12:36:06.711Z,16.70
2022-09-17T12:39:24.729Z,17.48
2022-09-17T12:42:22.711Z,16.73
2022-09-17T12:45:11.731Z,15.77
2022-09-17T12:48:19.733Z,16.48
2022-09-17T12:51:59.753Z,17.52
2022-09-17T12:54:54.738Z,16.98
2022-09-17T12:58:05.750Z,16.58
2022-09-17T13:01:02.771Z,15.95
2022-09-17T13:03:45.758Z,17.05
2022-09-17T13:07:09.728Z,16.25
2022-09-17T13:10:06.720Z,19.55
2022-09-17T13:12:59.750Z,20.77
2022-09-17T13:15:42.790Z,17.92
2022-09-17T13:18:41.422Z,18.33
2022-09-17T13:21:20.969Z,18.50
2022-09-17T13:24:08.749Z,17.02
2022-09-17T13:26:45.799Z,18.15
2022-09-17T13:29:53.771Z,17.52
2022-09-17T13:32:39.789Z,17.58
2022-09-17T13:35:29.756Z,18.83
2022-09-17T13:38:06.891Z,17.48
2022-09-17T13:40:53.753Z,16.98
2022-09-17T13:43:37.769Z,17.67
2022-09-17T13:46:38.817Z,17.00
2022-09-17T13:49:25.795Z,16.33
2022-09-17T13:52:11.641Z,17.70
2022-09-17T13:54:58.763Z,14.90
2022-09-17T13:57:33.915Z,17.75
2022-09-17T14:00:55.815Z,17.60
2022-09-17T14:03:34.923Z,18.15
2022-09-17T14:06:21.761Z,16.90
2022-09-17T14:08:58.057Z,15.50
2022-09-17T14:11:44.764Z,16.25
2022-09-17T14:14:20.863Z,17.88
2022-09-17T14:17:07.778Z,17.50
2022-09-17T14:19:57.880Z,18.08
2022-09-17T14:22:44.792Z,17.10
2022-09-17T14:25:26.877Z,18.45
2022-09-17T14:28:49.878Z,17.85
2022-09-17T14:31:34.783Z,16.48
2022-09-17T14:34:36.773Z,16.13
2022-09-17T14:37:27.822Z,17.15
2022-09-17T14:40:00.910Z,15.18
2022-09-17T14:42:47.791Z,16.50
2022-09-17T14:45:25.879Z,16.83
2022-09-17T14:48:37.798Z,15.75
2022-09-17T14:51:32.787Z,20.13
2022-09-17T14:54:36.232Z,14.63
2022-09-17T14:57:33.803Z,13.48
2022-09-17T15:00:14.790Z,16.17
2022-09-17T15:03:09.832Z,16.77
2022-09-17T15:06:03.792Z,14.80
2022-09-17T15:08:58.796Z,17.77
2022-09-17T15:11:48.800Z,16.90
2022-09-17T15:14:48.928Z,17.45
2022-09-17T15:17:36.797Z,16.85
2022-09-17T15:20:11.916Z,16.40
2022-09-17T15:23:07.822Z,16.00
2022-09-17T15:25:43.171Z,14.68
2022-09-17T15:28:44.814Z,14.55
2022-09-17T15:31:27.069Z,15.15
2022-09-17T15:34:16.831Z,17.80
2022-09-17T15:37:09.997Z,16.40
2022-09-17T15:39:59.869Z,15.35
2022-09-17T15:42:37.912Z,17.35
2022-09-17T15:45:32.795Z,18.30
2022-09-17T15:48:11.022Z,13.63
2022-09-17T15:51:00.812Z,15.32
2022-09-17T15:53:35.977Z,15.00
2022-09-17T15:56:25.826Z,14.60
2022-09-17T15:59:14.817Z,17.00
2022-09-17T16:02:04.947Z,19.50
2022-09-17T16:04:48.822Z,15.80
2022-09-17T16:07:36.842Z,14.30
2022-09-17T16:10:13.920Z,17.00
2022-09-17T16:13:02.827Z,17.65
2022-09-17T16:15:42.846Z,17.00
2022-09-17T16:18:29.823Z,15.88
2022-09-17T16:21:10.847Z,18.13
2022-09-17T16:24:00.843Z,17.20
2022-09-17T16:26:46.851Z,15.65
2022-09-17T16:29:33.839Z,16.75
2022-09-17T16:32:07.491Z,16.35
2022-09-17T16:34:53.842Z,14.98
2022-09-17T16:37:27.053Z,16.67
2022-09-17T16:40:17.928Z,17.50
2022-09-17T16:42:50.930Z,17.08
2022-09-17T16:45:38.862Z,15.13
2022-09-17T16:48:19.866Z,13.90
2022-09-17T16:51:14.850Z,16.38
2022-09-17T16:54:03.850Z,16.10
2022-09-17T16:56:36.939Z,15.45
2022-09-17T16:59:23.873Z,16.67
2022-09-17T17:01:57.017Z,14.73
2022-09-17T17:04:43.936Z,14.80
2022-09-17T17:07:17.083Z,15.90
2022-09-17T17:10:05.863Z,16.85
2022-09-17T17:12:38.973Z,16.70
2022-09-17T17:15:25.860Z,16.65
2022-09-17T17:17:59.975Z,16.98
2022-09-17T17:20:46.862Z,16.20
2022-09-17T17:23:20.197Z,16.23
2022-09-17T17:26:06.869Z,16.15
2022-09-17T17:28:47.910Z,15.73
2022-09-17T17:31:43.931Z,17.88
2022-09-17T17:34:30.992Z,17.25
2022-09-17T17:37:07.350Z,15.80
2022-09-17T17:39:55.963Z,15.00
2022-09-17T17:42:41.888Z,15.55
2022-09-17T17:45:35.916Z,16.10
2022-09-17T17:48:22.877Z,16.73
2022-09-17T17:50:56.916Z,15.43
2022-09-17T17:53:44.895Z,20.30
2022-09-17T17:56:26.886Z,17.58
2022-09-17T17:59:20.883Z,17.25
2022-09-17T18:02:07.994Z,17.25
2022-09-17T18:04:47.849Z,17.40
2022-09-17T18:07:42.882Z,16.98
2022-09-17T18:10:30.907Z,16.73
2022-09-17T18:13:03.984Z,16.60
2022-09-17T18:15:59.937Z,19.77
2022-09-17T18:18:48.902Z,19.13
2022-09-17T18:21:42.880Z,19.05
2022-09-17T18:24:29.912Z,18.25
2022-09-17T18:27:03.000Z,18.38
2022-09-17T18:29:49.907Z,19.95
2022-09-17T18:32:22.990Z,19.45
2022-09-17T18:35:09.909Z,20.80
2022-09-17T18:37:43.001Z,19.42
2022-09-17T18:40:29.932Z,17.25
2022-09-17T18:43:03.006Z,19.88
2022-09-17T18:45:49.915Z,20.38
2022-09-17T18:48:22.984Z,18.60
2022-09-17T18:51:14.919Z,20.48
2022-09-17T18:53:51.514Z,17.95
2022-09-17T18:56:39.916Z,17.95
2022-09-17T18:59:13.203Z,18.88
2022-09-17T19:01:59.985Z,18.60
2022-09-17T19:04:33.004Z,19.55
2022-09-17T19:07:19.920Z,21.88
2022-09-17T19:09:59.913Z,20.23
2022-09-17T19:12:47.919Z,20.70
2022-09-17T19:15:30.920Z,19.77
2022-09-17T19:18:17.913Z,19.48
2022-09-17T19:20:57.905Z,20.92
2022-09-17T19:23:55.922Z,21.25
2022-09-17T19:26:57.917Z,19.02
2022-09-17T19:29:44.945Z,18.50
2022-09-17T19:32:24.919Z,19.38
2022-09-17T19:35:12.957Z,20.65
2022-09-17T19:37:46.099Z,19.70
2022-09-17T19:40:32.986Z,20.67
2022-09-17T19:43:06.043Z,19.70
2022-09-17T19:45:52.915Z,19.10
2022-09-17T19:48:26.101Z,19.42
2022-09-17T19:51:12.947Z,19.60
2022-09-17T19:53:47.028Z,19.75
2022-09-17T19:56:33.942Z,19.90
2022-09-17T19:59:13.926Z,19.58
2022-09-17T20:02:07.973Z,19.73
2022-09-17T20:04:54.938Z,19.17
2022-09-17T20:07:34.973Z,18.08
2022-09-17T20:10:28.937Z,20.38
2022-09-17T20:13:15.928Z,20.80
2022-09-17T20:15:55.992Z,17.35
2022-09-17T20:18:42.929Z,19.00
2022-09-17T20:21:31.946Z,19.08
2022-09-17T20:24:18.950Z,19.65
2022-09-17T20:26:58.990Z,21.80
2022-09-17T20:29:52.953Z,22.10
2022-09-17T20:32:46.941Z,20.83
2022-09-17T20:35:40.991Z,20.52
2022-09-17T20:41:51.986Z,21.15
2022-09-17T20:44:38.941Z,19.88
2022-09-17T20:47:12.079Z,19.45
2022-09-17T20:50:00.946Z,20.00
2022-09-17T20:52:40.974Z,20.63
2022-09-17T20:55:36.004Z,22.33
2022-09-17T20:58:29.968Z,22.10
2022-09-17T21:01:27.053Z,21.10
2022-09-17T21:04:08.083Z,20.63
2022-09-17T21:06:58.964Z,20.83
2022-09-17T21:09:32.078Z,21.85
2022-09-17T21:12:18.986Z,21.88
2022-09-17T21:14:52.075Z,22.83
2022-09-17T21:17:39.962Z,23.55
2022-09-17T21:20:14.060Z,22.25
2022-09-17T21:23:00.968Z,22.05
2022-09-17T21:25:40.994Z,21.27
2022-09-17T21:28:34.981Z,22.70
2022-09-17T21:31:33.039Z,22.98
2022-09-17T21:34:20.978Z,22.27
2022-09-17T21:36:55.139Z,22.25
2022-09-17T21:39:41.990Z,22.25
2022-09-17T21:42:15.083Z,22.50
2022-09-17T21:45:01.994Z,22.90
2022-09-17T21:47:35.076Z,22.83
2022-09-17T21:50:21.981Z,23.02
2022-09-17T21:53:01.989Z,21.88
2022-09-17T21:55:48.980Z,24.30
2022-09-17T21:58:31.992Z,23.88
2022-09-17T22:01:22.050Z,24.08
2022-09-17T22:04:02.090Z,21.58
2022-09-17T22:06:56.998Z,23.17
2022-09-17T22:09:50.987Z,25.23
2022-09-17T22:12:45.013Z,26.73
2022-09-17T22:15:31.994Z,23.88
2022-09-17T22:18:13.064Z,24.13
2022-09-17T22:21:01.010Z,24.92
2022-09-17T22:23:41.032Z,24.25
2022-09-17T22:26:38.004Z,24.15
2022-09-17T22:29:33.983Z,26.42
2022-09-17T22:32:29.014Z,26.02
2022-09-17T22:35:22.987Z,23.77
2022-09-17T22:38:10.019Z,24.42
2022-09-17T22:40:43.149Z,24.52
2022-09-17T22:43:30.026Z,24.23
2022-09-17T22:46:03.179Z,23.70
2022-09-17T22:48:50.009Z,25.75
2022-09-17T22:51:25.147Z,24.10
2022-09-17T22:54:13.014Z,22.25
2022-09-17T22:56:47.188Z,24.48
2022-09-17T22:59:34.015Z,20.35
2022-09-17T23:02:07.691Z,22.08
2022-09-17T23:04:54.030Z,22.13
2022-09-17T23:07:27.104Z,22.00
2022-09-17T23:10:14.045Z,20.80
2022-09-17T23:12:47.127Z,18.63
2022-09-17T23:15:34.027Z,19.42
2022-09-17T23:18:07.124Z,21.33
2022-09-17T23:21:07.053Z,21.30
2022-09-17T23:23:42.238Z,19.83
2022-09-17T23:26:32.030Z,20.83
2022-09-17T23:29:07.133Z,20.85
2022-09-17T23:32:01.029Z,19.52
2022-09-17T23:34:55.027Z,20.70
2022-09-17T23:37:49.048Z,20.98
2022-09-17T23:40:43.029Z,18.63
2022-09-17T23:43:30.054Z,19.77
2022-09-17T23:46:03.246Z,20.20
2022-09-17T23:48:50.053Z,19.90
2022-09-17T23:51:23.190Z,21.67
2022-09-17T23:54:12.049Z,21.85
2022-09-17T23:56:45.157Z,18.92
2022-09-17T23:59:32.048Z,20.75
